sensor_id;sensor_type;location;lat;lon;timestamp;pressure;altitude;pressure_sealevel;temperature;humidity
75447;BME280;64024;55.820;37.574;2022-10-16T00:00:44;100022.81;;;16.96;43.90
75447;BME280;64024;55.820;37.574;2022-10-16T00:03:11;100019.53;;;16.94;43.93
75447;BME280;64024;55.820;37.574;2022-10-16T00:05:43;100019.53;;;16.94;44.21
75447;BME280;64024;55.820;37.574;2022-10-16T00:08:11;100022.47;;;16.93;44.01
75447;BME280;64024;55.820;37.574;2022-10-16T00:10:37;100017.09;;;16.93;44.17
75447;BME280;64024;55.820;37.574;2022-10-16T00:13:03;100027.03;;;16.92;44.37
75447;BME280;64024;55.820;37.574;2022-10-16T00:15:30;100023.50;;;16.92;44.40
75447;BME280;64024;55.820;37.574;2022-10-16T00:17:57;100025.59;;;16.89;44.45
75447;BME280;64024;55.820;37.574;2022-10-16T00:20:23;100033.66;;;16.89;44.39
75447;BME280;64024;55.820;37.574;2022-10-16T00:22:49;100029.56;;;16.87;44.31
75447;BME280;64024;55.820;37.574;2022-10-16T00:25:14;100035.97;;;16.86;44.48
75447;BME280;64024;55.820;37.574;2022-10-16T00:27:40;100028.16;;;16.84;44.50
75447;BME280;64024;55.820;37.574;2022-10-16T00:30:06;100028.38;;;16.83;44.61
75447;BME280;64024;55.820;37.574;2022-10-16T00:32:33;100032.94;;;16.82;44.59
75447;BME280;64024;55.820;37.574;2022-10-16T00:34:59;100032.13;;;16.82;44.59
75447;BME280;64024;55.820;37.574;2022-10-16T00:37:24;100036.91;;;16.80;44.45
75447;BME280;64024;55.820;37.574;2022-10-16T00:39:50;100037.13;;;16.78;44.72
75447;BME280;64024;55.820;37.574;2022-10-16T00:42:17;100044.34;;;16.78;44.67
75447;BME280;64024;55.820;37.574;2022-10-16T00:44:53;100037.03;;;16.85;44.66
75447;BME280;64024;55.820;37.574;2022-10-16T00:47:36;100036.06;;;16.79;44.74
75447;BME280;64024;55.820;37.574;2022-10-16T00:50:06;100040.84;;;16.77;44.63
75447;BME280;64024;55.820;37.574;2022-10-16T00:52:32;100046.69;;;16.74;44.43
75447;BME280;64024;55.820;37.574;2022-10-16T00:54:58;100047.94;;;16.72;44.59
75447;BME280;64024;55.820;37.574;2022-10-16T00:57:24;100053.75;;;16.69;44.78
75447;BME280;64024;55.820;37.574;2022-10-16T00:59:51;100048.59;;;16.67;44.97
75447;BME280;64024;55.820;37.574;2022-10-16T01:02:17;100051.53;;;16.65;44.90
75447;BME280;64024;55.820;37.574;2022-10-16T01:04:48;100047.19;;;16.64;45.26
75447;BME280;64024;55.820;37.574;2022-10-16T01:12:55;100060.63;;;16.64;45.25
75447;BME280;64024;55.820;37.574;2022-10-16T01:15:32;100052.81;;;16.63;45.20
75447;BME280;64024;55.820;37.574;2022-10-16T01:18:37;100055.69;;;16.61;45.16
75447;BME280;64024;55.820;37.574;2022-10-16T01:21:02;100058.63;;;16.60;45.22
75447;BME280;64024;55.820;37.574;2022-10-16T01:28:50;100051.03;;;16.57;45.45
75447;BME280;64024;55.820;37.574;2022-10-16T01:31:19;100055.81;;;16.55;45.19
75447;BME280;64024;55.820;37.574;2022-10-16T01:33:49;100063.00;;;16.54;45.25
75447;BME280;64024;55.820;37.574;2022-10-16T01:36:21;100060.56;;;16.53;45.42
75447;BME280;64024;55.820;37.574;2022-10-16T01:38:52;100065.94;;;16.53;45.40
75447;BME280;64024;55.820;37.574;2022-10-16T01:41:30;100060.00;;;16.51;45.45
75447;BME280;64024;55.820;37.574;2022-10-16T01:44:09;100063.69;;;16.50;45.63
75447;BME280;64024;55.820;37.574;2022-10-16T01:46:37;100056.69;;;16.49;45.54
75447;BME280;64024;55.820;37.574;2022-10-16T01:49:06;100072.22;;;16.47;45.58
75447;BME280;64024;55.820;37.574;2022-10-16T01:51:34;100060.63;;;16.46;45.48
75447;BME280;64024;55.820;37.574;2022-10-16T01:54:02;100067.88;;;16.46;45.45
75447;BME280;64024;55.820;37.574;2022-10-16T01:56:29;100057.38;;;16.44;45.82
75447;BME280;64024;55.820;37.574;2022-10-16T01:59:12;100063.31;;;16.46;45.55
75447;BME280;64024;55.820;37.574;2022-10-16T02:01:42;100061.94;;;16.44;45.42
75447;BME280;64024;55.820;37.574;2022-10-16T02:04:18;100071.63;;;16.45;45.46
75447;BME280;64024;55.820;37.574;2022-10-16T02:06:44;100065.66;;;16.43;45.40
75447;BME280;64024;55.820;37.574;2022-10-16T02:09:10;100063.19;;;16.41;45.72
75447;BME280;64024;55.820;37.574;2022-10-16T02:11:36;100066.13;;;16.39;45.81
75447;BME280;64024;55.820;37.574;2022-10-16T02:14:05;100067.97;;;16.39;45.64
75447;BME280;64024;55.820;37.574;2022-10-16T02:16:40;100067.97;;;16.39;45.57
75447;BME280;64024;55.820;37.574;2022-10-16T02:19:07;100069.00;;;16.38;45.70
75447;BME280;64024;55.820;37.574;2022-10-16T02:29:39;100070.50;;;16.34;45.65
75447;BME280;64024;55.820;37.574;2022-10-16T02:32:08;100076.09;;;16.32;45.88
75447;BME280;64024;55.820;37.574;2022-10-16T02:34:36;100076.34;;;16.31;45.77
75447;BME280;64024;55.820;37.574;2022-10-16T02:37:03;100076.34;;;16.31;45.96
75447;BME280;64024;55.820;37.574;2022-10-16T02:39:30;100072.84;;;16.30;45.91
75447;BME280;64024;55.820;37.574;2022-10-16T02:41:56;100075.53;;;16.30;45.85
75447;BME280;64024;55.820;37.574;2022-10-16T02:44:21;100081.91;;;16.29;45.89
75447;BME280;64024;55.820;37.574;2022-10-16T02:46:47;100078.66;;;16.27;46.07
75447;BME280;64024;55.820;37.574;2022-10-16T02:49:12;100077.81;;;16.27;46.09
75447;BME280;64024;55.820;37.574;2022-10-16T02:51:38;100072.47;;;16.27;45.86
75447;BME280;64024;55.820;37.574;2022-10-16T02:54:04;100082.38;;;16.26;45.92
75447;BME280;64024;55.820;37.574;2022-10-16T02:56:30;100086.91;;;16.26;46.18
75447;BME280;64024;55.820;37.574;2022-10-16T02:58:56;100084.44;;;16.24;45.94
75447;BME280;64024;55.820;37.574;2022-10-16T03:01:22;100089.00;;;16.24;45.85
75447;BME280;64024;55.820;37.574;2022-10-16T03:03:49;100089.81;;;16.24;45.79
75447;BME280;64024;55.820;37.574;2022-10-16T03:06:14;100087.94;;;16.25;45.83
75447;BME280;64024;55.820;37.574;2022-10-16T03:08:40;100094.13;;;16.25;45.87
75447;BME280;64024;55.820;37.574;2022-10-16T03:11:05;100094.13;;;16.25;46.15
75447;BME280;64024;55.820;37.574;2022-10-16T03:13:31;100092.28;;;16.26;46.40
75447;BME280;64024;55.820;37.574;2022-10-16T03:15:56;100096.00;;;16.25;47.25
75447;BME280;64024;55.820;37.574;2022-10-16T03:18:22;100102.16;;;16.25;47.77
75447;BME280;64024;55.820;37.574;2022-10-16T03:20:48;100104.84;;;16.25;48.17
75447;BME280;64024;55.820;37.574;2022-10-16T03:23:13;100098.66;;;16.25;48.75
75447;BME280;64024;55.820;37.574;2022-10-16T03:25:39;100100.53;;;16.24;48.65
75447;BME280;64024;55.820;37.574;2022-10-16T03:28:05;100099.97;;;16.22;48.83
75447;BME280;64024;55.820;37.574;2022-10-16T03:30:30;100098.28;;;16.21;48.77
75447;BME280;64024;55.820;37.574;2022-10-16T03:32:56;100099.34;;;16.20;48.96
75447;BME280;64024;55.820;37.574;2022-10-16T03:35:22;100104.72;;;16.20;48.74
75447;BME280;64024;55.820;37.574;2022-10-16T03:37:48;100107.38;;;16.20;48.92
75447;BME280;64024;55.820;37.574;2022-10-16T03:40:15;100112.19;;;16.18;48.51
75447;BME280;64024;55.820;37.574;2022-10-16T03:42:42;100109.50;;;16.18;48.96
75447;BME280;64024;55.820;37.574;2022-10-16T03:45:08;100118.34;;;16.19;48.37
75447;BME280;64024;55.820;37.574;2022-10-16T03:47:34;100104.94;;;16.19;48.25
75447;BME280;64024;55.820;37.574;2022-10-16T03:50:00;100108.44;;;16.19;48.46
75447;BME280;64024;55.820;37.574;2022-10-16T03:52:26;100108.44;;;16.19;48.43
75447;BME280;64024;55.820;37.574;2022-10-16T03:54:51;100111.94;;;16.20;48.42
75447;BME280;64024;55.820;37.574;2022-10-16T03:57:17;100112.75;;;16.20;48.29
75447;BME280;64024;55.820;37.574;2022-10-16T03:59:43;100111.13;;;16.19;48.18
75447;BME280;64024;55.820;37.574;2022-10-16T04:02:08;100114.63;;;16.20;48.35
75447;BME280;64024;55.820;37.574;2022-10-16T04:04:34;100114.63;;;16.20;48.33
75447;BME280;64024;55.820;37.574;2022-10-16T04:07:00;100111.13;;;16.19;48.42
75447;BME280;64024;55.820;37.574;2022-10-16T04:09:26;100120.00;;;16.20;48.01
75447;BME280;64024;55.820;37.574;2022-10-16T04:11:51;100111.94;;;16.20;47.80
75447;BME280;64024;55.820;37.574;2022-10-16T04:14:17;100105.53;;;16.21;47.98
75447;BME280;64024;55.820;37.574;2022-10-16T04:16:42;100110.44;;;16.24;47.87
75447;BME280;64024;55.820;37.574;2022-10-16T04:19:09;100110.00;;;16.27;47.85
75447;BME280;64024;55.820;37.574;2022-10-16T04:21:36;100107.72;;;16.30;47.93
75447;BME280;64024;55.820;37.574;2022-10-16T04:24:01;100109.72;;;16.35;47.74
75447;BME280;64024;55.820;37.574;2022-10-16T04:26:27;100113.34;;;16.40;47.56
75447;BME280;64024;55.820;37.574;2022-10-16T04:28:52;100115.97;;;16.47;47.60
75447;BME280;64024;55.820;37.574;2022-10-16T04:31:19;100124.16;;;16.52;47.13
75447;BME280;64024;55.820;37.574;2022-10-16T04:33:45;100116.03;;;16.59;47.09
75447;BME280;64024;55.820;37.574;2022-10-16T04:36:11;100114.31;;;16.64;47.15
75447;BME280;64024;55.820;37.574;2022-10-16T04:38:39;100115.84;;;16.72;47.00
75447;BME280;64024;55.820;37.574;2022-10-16T04:41:06;100116.59;;;16.79;46.83
75447;BME280;64024;55.820;37.574;2022-10-16T04:43:32;100121.88;;;16.86;46.80
75447;BME280;64024;55.820;37.574;2022-10-16T04:45:58;100117.84;;;16.95;46.79
75447;BME280;64024;55.820;37.574;2022-10-16T04:48:24;100119.13;;;17.04;46.69
75447;BME280;64024;55.820;37.574;2022-10-16T04:50:49;100124.19;;;17.12;46.41
75447;BME280;64024;55.820;37.574;2022-10-16T04:53:15;100127.41;;;17.21;46.43
75447;BME280;64024;55.820;37.574;2022-10-16T04:55:41;100122.50;;;17.30;46.35
75447;BME280;64024;55.820;37.574;2022-10-16T04:58:06;100127.56;;;17.38;46.13
75447;BME280;64024;55.820;37.574;2022-10-16T05:00:33;100134.22;;;17.47;45.91
75447;BME280;64024;55.820;37.574;2022-10-16T05:02:58;100130.13;;;17.56;45.73
75447;BME280;64024;55.820;37.574;2022-10-16T05:05:26;100129.78;;;17.64;45.54
75447;BME280;64024;55.820;37.574;2022-10-16T05:07:52;100132.13;;;17.73;45.38
75447;BME280;64024;55.820;37.574;2022-10-16T05:10:17;100131.81;;;17.81;45.25
75447;BME280;64024;55.820;37.574;2022-10-16T05:12:43;100128.78;;;17.89;45.05
75447;BME280;64024;55.820;37.574;2022-10-16T05:15:09;100127.63;;;17.97;44.87
75447;BME280;64024;55.820;37.574;2022-10-16T05:17:35;100134.53;;;18.04;44.73
75447;BME280;64024;55.820;37.574;2022-10-16T05:20:00;100137.31;;;18.09;44.57
75447;BME280;64024;55.820;37.574;2022-10-16T05:22:26;100130.16;;;18.15;44.56
75447;BME280;64024;55.820;37.574;2022-10-16T05:24:51;100136.50;;;18.21;44.57
75447;BME280;64024;55.820;37.574;2022-10-16T05:27:17;100142.19;;;18.24;44.68
75447;BME280;64024;55.820;37.574;2022-10-16T05:29:47;100143.59;;;18.27;44.60
75447;BME280;64024;55.820;37.574;2022-10-16T05:32:14;100149.34;;;18.30;44.57
75447;BME280;64024;55.820;37.574;2022-10-16T05:34:41;100142.66;;;18.33;44.69
75447;BME280;64024;55.820;37.574;2022-10-16T05:37:06;100145.94;;;18.35;44.47
75447;BME280;64024;55.820;37.574;2022-10-16T05:39:32;100147.34;;;18.37;44.31
75447;BME280;64024;55.820;37.574;2022-10-16T05:41:58;100141.72;;;18.39;44.35
75447;BME280;64024;55.820;37.574;2022-10-16T05:44:23;100149.53;;;18.41;44.17
75447;BME280;64024;55.820;37.574;2022-10-16T05:46:49;100152.00;;;18.42;44.10
75447;BME280;64024;55.820;37.574;2022-10-16T05:49:15;100144.50;;;18.44;44.08
75447;BME280;64024;55.820;37.574;2022-10-16T05:51:40;100152.38;;;18.46;44.15
75447;BME280;64024;55.820;37.574;2022-10-16T05:54:07;100152.94;;;18.48;44.34
75447;BME280;64024;55.820;37.574;2022-10-16T05:56:33;100159.13;;;18.48;44.45
75447;BME280;64024;55.820;37.574;2022-10-16T05:58:58;100158.06;;;18.49;44.36
75447;BME280;64024;55.820;37.574;2022-10-16T06:01:24;100162.16;;;18.52;44.44
75447;BME280;64024;55.820;37.574;2022-10-16T06:03:51;100160.53;;;18.51;44.17
75447;BME280;64024;55.820;37.574;2022-10-16T06:06:19;100161.34;;;18.51;44.36
75447;BME280;64024;55.820;37.574;2022-10-16T06:08:46;100158.53;;;18.58;44.25
75447;BME280;64024;55.820;37.574;2022-10-16T06:11:14;100162.16;;;18.63;44.10
75447;BME280;64024;55.820;37.574;2022-10-16T06:13:40;100164.13;;;18.68;44.06
75447;BME280;64024;55.820;37.574;2022-10-16T06:16:11;100162.88;;;18.71;44.17
75447;BME280;64024;55.820;37.574;2022-10-16T06:18:38;100168.00;;;18.72;44.11
75447;BME280;64024;55.820;37.574;2022-10-16T06:21:16;100159.66;;;18.74;44.17
75447;BME280;64024;55.820;37.574;2022-10-16T06:23:42;100162.16;;;18.75;43.94
75447;BME280;64024;55.820;37.574;2022-10-16T06:26:10;100156.75;;;18.75;44.20
75447;BME280;64024;55.820;37.574;2022-10-16T06:28:36;100167.28;;;18.77;43.95
75447;BME280;64024;55.820;37.574;2022-10-16T06:31:03;100167.28;;;18.77;44.11
75447;BME280;64024;55.820;37.574;2022-10-16T06:33:29;100166.81;;;18.80;44.01
75447;BME280;64024;55.820;37.574;2022-10-16T06:36:06;100168.19;;;18.82;44.12
75447;BME280;64024;55.820;37.574;2022-10-16T06:38:33;100174.16;;;18.84;43.97
75447;BME280;64024;55.820;37.574;2022-10-16T06:40:59;100168.78;;;18.84;43.97
75447;BME280;64024;55.820;37.574;2022-10-16T06:43:25;100179.31;;;18.86;44.14
75447;BME280;64024;55.820;37.574;2022-10-16T06:45:55;100180.97;;;18.87;44.27
75447;BME280;64024;55.820;37.574;2022-10-16T06:48:22;100174.50;;;18.88;43.96
75447;BME280;64024;55.820;37.574;2022-10-16T06:51:03;100177.56;;;18.92;44.19
75447;BME280;64024;55.820;37.574;2022-10-16T06:53:31;100174.59;;;18.93;43.88
75447;BME280;64024;55.820;37.574;2022-10-16T06:55:57;100173.53;;;18.94;44.14
75447;BME280;64024;55.820;37.574;2022-10-16T06:58:23;100173.06;;;18.97;44.14
75447;BME280;64024;55.820;37.574;2022-10-16T07:00:55;100180.09;;;18.98;44.09
75447;BME280;64024;55.820;37.574;2022-10-16T07:03:22;100190.66;;;19.00;44.00
75447;BME280;64024;55.820;37.574;2022-10-16T07:05:48;100183.13;;;19.02;43.93
75447;BME280;64024;55.820;37.574;2022-10-16T07:08:14;100190.94;;;19.03;43.73
75447;BME280;64024;55.820;37.574;2022-10-16T07:10:39;100184.53;;;19.04;43.83
75447;BME280;64024;55.820;37.574;2022-10-16T07:13:05;100187.78;;;19.06;43.93
75447;BME280;64024;55.820;37.574;2022-10-16T07:15:32;100185.69;;;19.08;43.74
75447;BME280;64024;55.820;37.574;2022-10-16T07:17:58;100184.38;;;19.11;43.49
75447;BME280;64024;55.820;37.574;2022-10-16T07:20:24;100194.09;;;19.12;43.52
75447;BME280;64024;55.820;37.574;2022-10-16T07:22:50;100186.59;;;19.14;43.68
75447;BME280;64024;55.820;37.574;2022-10-16T07:25:17;100191.50;;;19.17;43.73
75447;BME280;64024;55.820;37.574;2022-10-16T07:27:42;100180.47;;;19.19;43.54
75447;BME280;64024;55.820;37.574;2022-10-16T07:30:08;100199.13;;;19.20;43.44
75447;BME280;64024;55.820;37.574;2022-10-16T07:32:34;100191.03;;;19.20;42.90
75447;BME280;64024;55.820;37.574;2022-10-16T07:35:00;100185.78;;;19.13;42.00
75447;BME280;64024;55.820;37.574;2022-10-16T07:37:25;100199.63;;;19.05;41.85
75447;BME280;64024;55.820;37.574;2022-10-16T07:39:51;100190.31;;;18.96;41.52
75447;BME280;64024;55.820;37.574;2022-10-16T07:42:17;100195.00;;;18.89;41.59
75447;BME280;64024;55.820;37.574;2022-10-16T07:44:42;100199.69;;;18.82;41.69
75447;BME280;64024;55.820;37.574;2022-10-16T07:47:08;100192.59;;;18.76;41.78
75447;BME280;64024;55.820;37.574;2022-10-16T07:49:34;100193.31;;;18.71;41.37
75447;BME280;64024;55.820;37.574;2022-10-16T07:51:59;100188.34;;;18.68;41.46
75447;BME280;64024;55.820;37.574;2022-10-16T07:54:25;100202.63;;;18.69;41.37
75447;BME280;64024;55.820;37.574;2022-10-16T07:56:51;100192.09;;;18.67;41.61
75447;BME280;64024;55.820;37.574;2022-10-16T07:59:16;100196.56;;;18.61;41.34
75447;BME280;64024;55.820;37.574;2022-10-16T08:01:42;100205.59;;;18.55;41.33
75447;BME280;64024;55.820;37.574;2022-10-16T08:04:08;100200.91;;;18.51;41.74
75447;BME280;64024;55.820;37.574;2022-10-16T08:06:38;100204.41;;;18.51;42.05
75447;BME280;64024;55.820;37.574;2022-10-16T08:09:05;100206.06;;;18.52;41.97
75447;BME280;64024;55.820;37.574;2022-10-16T08:11:31;100205.00;;;18.53;41.88
75447;BME280;64024;55.820;37.574;2022-10-16T08:13:57;100204.78;;;18.55;41.95
75447;BME280;64024;55.820;37.574;2022-10-16T08:16:23;100195.06;;;18.54;41.71
75447;BME280;64024;55.820;37.574;2022-10-16T08:18:50;100195.28;;;18.52;41.59
75447;BME280;64024;55.820;37.574;2022-10-16T08:21:19;100198.56;;;18.54;41.62
75447;BME280;64024;55.820;37.574;2022-10-16T08:23:45;100194.00;;;18.55;41.39
75447;BME280;64024;55.820;37.574;2022-10-16T08:26:12;100196.44;;;18.56;41.10
75447;BME280;64024;55.820;37.574;2022-10-16T08:28:38;100196.22;;;18.58;41.09
75447;BME280;64024;55.820;37.574;2022-10-16T08:31:13;100194.56;;;18.57;40.60
75447;BME280;64024;55.820;37.574;2022-10-16T08:33:40;100201.03;;;18.56;40.72
75447;BME280;64024;55.820;37.574;2022-10-16T08:36:07;100191.66;;;18.58;40.94
75447;BME280;64024;55.820;37.574;2022-10-16T08:38:33;100195.38;;;18.57;40.82
75447;BME280;64024;55.820;37.574;2022-10-16T08:44:27;100184.06;;;18.55;40.12
75447;BME280;64024;55.820;37.574;2022-10-16T08:47:19;100183.00;;;18.56;41.00
75447;BME280;64024;55.820;37.574;2022-10-16T08:50:12;100191.41;;;18.60;41.01
75447;BME280;64024;55.820;37.574;2022-10-16T08:52:43;100187.31;;;18.57;40.80
75447;BME280;64024;55.820;37.574;2022-10-16T08:57:54;100192.22;;;18.60;40.64
75447;BME280;64024;55.820;37.574;2022-10-16T09:00:20;100190.34;;;18.61;40.48
75447;BME280;64024;55.820;37.574;2022-10-16T09:05:46;100188.25;;;18.63;40.32
75447;BME280;64024;55.820;37.574;2022-10-16T09:11:00;100196.34;;;18.63;39.51
75447;BME280;64024;55.820;37.574;2022-10-16T09:13:33;100189.06;;;18.75;39.83
75447;BME280;64024;55.820;37.574;2022-10-16T09:16:22;100188.72;;;18.72;39.51
75447;BME280;64024;55.820;37.574;2022-10-16T09:19:25;100185.66;;;18.68;39.10
75447;BME280;64024;55.820;37.574;2022-10-16T09:21:52;100188.59;;;18.67;39.29
75447;BME280;64024;55.820;37.574;2022-10-16T09:24:21;100175.34;;;18.65;39.49
75447;BME280;64024;55.820;37.574;2022-10-16T09:26:49;100190.22;;;18.68;39.37
75447;BME280;64024;55.820;37.574;2022-10-16T09:29:17;100187.28;;;18.69;39.26
75447;BME280;64024;55.820;37.574;2022-10-16T09:31:47;100182.53;;;18.71;38.96
75447;BME280;64024;55.820;37.574;2022-10-16T09:34:35;100182.88;;;18.75;38.65
75447;BME280;64024;55.820;37.574;2022-10-16T09:37:09;100173.72;;;18.76;39.02
75447;BME280;64024;55.820;37.574;2022-10-16T09:39:48;100175.97;;;18.79;39.30
75447;BME280;64024;55.820;37.574;2022-10-16T09:42:17;100183.88;;;18.85;39.07
75447;BME280;64024;55.820;37.574;2022-10-16T09:44:47;100161.63;;;18.90;39.06
75447;BME280;64024;55.820;37.574;2022-10-16T09:47:21;100166.28;;;18.95;38.99
75447;BME280;64024;55.820;37.574;2022-10-16T09:50:13;100171.78;;;19.00;38.84
75447;BME280;64024;55.820;37.574;2022-10-16T09:52:44;100156.78;;;19.04;38.68
75447;BME280;64024;55.820;37.574;2022-10-16T09:55:16;100152.75;;;19.06;38.39
75447;BME280;64024;55.820;37.574;2022-10-16T09:57:55;100157.41;;;19.11;38.23
75447;BME280;64024;55.820;37.574;2022-10-16T10:00:22;100156.69;;;19.16;38.74
75447;BME280;64024;55.820;37.574;2022-10-16T10:02:49;100151.91;;;19.18;38.64
75447;BME280;64024;55.820;37.574;2022-10-16T10:05:25;100160.31;;;19.21;38.23
75447;BME280;64024;55.820;37.574;2022-10-16T10:07:58;100156.91;;;19.26;37.74
75447;BME280;64024;55.820;37.574;2022-10-16T10:10:27;100146.69;;;19.28;37.70
75447;BME280;64024;55.820;37.574;2022-10-16T10:12:54;100153.47;;;19.30;37.78
75447;BME280;64024;55.820;37.574;2022-10-16T10:15:21;100145.13;;;19.32;37.38
75447;BME280;64024;55.820;37.574;2022-10-16T10:17:51;100153.00;;;19.33;37.28
75447;BME280;64024;55.820;37.574;2022-10-16T10:22:53;100141.13;;;19.34;37.44
75447;BME280;64024;55.820;37.574;2022-10-16T10:28:17;100145.78;;;19.39;37.30
75447;BME280;64024;55.820;37.574;2022-10-16T10:36:37;100133.66;;;19.53;37.03
75447;BME280;64024;55.820;37.574;2022-10-16T10:39:14;100140.66;;;19.54;37.15
75447;BME280;64024;55.820;37.574;2022-10-16T10:41:54;100143.91;;;19.56;37.22
75447;BME280;64024;55.820;37.574;2022-10-16T11:05:56;100140.19;;;19.91;36.81
75447;BME280;64024;55.820;37.574;2022-10-16T11:08:46;100137.78;;;19.95;37.10
75447;BME280;64024;55.820;37.574;2022-10-16T11:11:19;100125.16;;;19.95;36.61
75447;BME280;64024;55.820;37.574;2022-10-16T11:22:10;100129.41;;;19.91;36.50
75447;BME280;64024;55.820;37.574;2022-10-16T11:27:15;100131.28;;;19.91;36.40
75447;BME280;64024;55.820;37.574;2022-10-16T11:29:52;100133.16;;;19.90;36.88
75447;BME280;64024;55.820;37.574;2022-10-16T11:32:28;100119.91;;;19.89;36.55
75447;BME280;64024;55.820;37.574;2022-10-16T11:35:02;100125.56;;;19.87;36.41
75447;BME280;64024;55.820;37.574;2022-10-16T11:37:37;100114.78;;;19.87;36.60
75447;BME280;64024;55.820;37.574;2022-10-16T11:40:29;100128.00;;;19.89;36.59
75447;BME280;64024;55.820;37.574;2022-10-16T11:43:10;100122.59;;;19.89;36.40
75447;BME280;64024;55.820;37.574;2022-10-16T11:45:43;100121.81;;;19.88;36.41
75447;BME280;64024;55.820;37.574;2022-10-16T11:48:33;100115.25;;;19.84;35.67
75447;BME280;64024;55.820;37.574;2022-10-16T11:51:17;100116.81;;;19.80;35.67
75447;BME280;64024;55.820;37.574;2022-10-16T11:56:19;100109.69;;;19.74;36.38
75447;BME280;64024;55.820;37.574;2022-10-16T12:02:23;100110.28;;;19.76;36.63
75447;BME280;64024;55.820;37.574;2022-10-16T12:05:04;100124.25;;;19.73;36.88
75447;BME280;64024;55.820;37.574;2022-10-16T12:10:23;100125.31;;;19.72;36.88
75447;BME280;64024;55.820;37.574;2022-10-16T12:12:50;100122.63;;;19.72;36.50
75447;BME280;64024;55.820;37.574;2022-10-16T12:15:30;100110.78;;;19.73;36.45
75447;BME280;64024;55.820;37.574;2022-10-16T12:17:57;100116.44;;;19.71;36.53
75447;BME280;64024;55.820;37.574;2022-10-16T12:20:33;100114.53;;;19.72;36.60
75447;BME280;64024;55.820;37.574;2022-10-16T12:23:05;100095.91;;;19.70;36.50
75447;BME280;64024;55.820;37.574;2022-10-16T12:25:36;100105.88;;;19.70;36.44
75447;BME280;64024;55.820;37.574;2022-10-16T12:28:21;100098.03;;;19.68;36.58
75447;BME280;64024;55.820;37.574;2022-10-16T12:30:55;100090.75;;;19.69;36.22
75447;BME280;64024;55.820;37.574;2022-10-16T12:33:31;100093.72;;;19.67;36.24
75447;BME280;64024;55.820;37.574;2022-10-16T12:36:00;100097.97;;;19.63;36.47
75447;BME280;64024;55.820;37.574;2022-10-16T12:38:36;100094.44;;;19.63;36.21
75447;BME280;64024;55.820;37.574;2022-10-16T12:41:08;100095.50;;;19.61;36.39
75447;BME280;64024;55.820;37.574;2022-10-16T12:43:43;100095.50;;;19.61;36.31
75447;BME280;64024;55.820;37.574;2022-10-16T12:48:37;100086.38;;;19.63;36.08
75447;BME280;64024;55.820;37.574;2022-10-16T12:51:10;100085.28;;;19.64;35.96
75447;BME280;64024;55.820;37.574;2022-10-16T12:53:36;100091.66;;;19.74;36.09
75447;BME280;64024;55.820;37.574;2022-10-16T12:56:26;100087.09;;;19.75;36.10
75447;BME280;64024;55.820;37.574;2022-10-16T13:04:50;100087.38;;;19.95;35.96
75447;BME280;64024;55.820;37.574;2022-10-16T13:07:39;100085.44;;;20.13;35.94
75447;BME280;64024;55.820;37.574;2022-10-16T13:13:03;100087.88;;;20.53;34.95
75447;BME280;64024;55.820;37.574;2022-10-16T13:15:39;100081.31;;;20.71;34.54
75447;BME280;64024;55.820;37.574;2022-10-16T13:18:17;100091.50;;;20.91;34.53
75447;BME280;64024;55.820;37.574;2022-10-16T13:26:23;100083.72;;;21.26;33.85
75447;BME280;64024;55.820;37.574;2022-10-16T13:28:52;100091.31;;;21.29;33.72
75447;BME280;64024;55.820;37.574;2022-10-16T13:31:21;100095.91;;;21.29;33.95
75447;BME280;64024;55.820;37.574;2022-10-16T13:33:53;100075.88;;;21.25;33.88
75447;BME280;64024;55.820;37.574;2022-10-16T13:36:51;100088.56;;;21.24;34.05
75447;BME280;64024;55.820;37.574;2022-10-16T13:39:30;100073.66;;;21.22;33.66
75447;BME280;64024;55.820;37.574;2022-10-16T13:42:03;100072.78;;;21.11;33.66
75447;BME280;64024;55.820;37.574;2022-10-16T13:44:35;100096.50;;;21.04;33.96
75447;BME280;64024;55.820;37.574;2022-10-16T13:47:02;100077.72;;;20.92;34.37
75447;BME280;64024;55.820;37.574;2022-10-16T13:49:28;100085.47;;;20.83;34.38
75447;BME280;64024;55.820;37.574;2022-10-16T13:51:58;100079.16;;;20.73;34.40
75447;BME280;64024;55.820;37.574;2022-10-16T13:54:26;100079.59;;;20.65;34.69
75447;BME280;64024;55.820;37.574;2022-10-16T13:56:54;100087.09;;;20.57;34.53
75447;BME280;64024;55.820;37.574;2022-10-16T13:59:25;100084.25;;;20.47;34.39
75447;BME280;64024;55.820;37.574;2022-10-16T14:01:53;100088.72;;;20.36;34.76
75447;BME280;64024;55.820;37.574;2022-10-16T14:04:20;100085.34;;;20.24;34.79
75447;BME280;64024;55.820;37.574;2022-10-16T14:06:49;100084.94;;;20.16;35.46
75447;BME280;64024;55.820;37.574;2022-10-16T14:09:23;100086.50;;;20.11;36.59
75447;BME280;64024;55.820;37.574;2022-10-16T14:11:56;100089.44;;;20.10;36.77
75447;BME280;64024;55.820;37.574;2022-10-16T14:14:23;100083.25;;;20.09;37.12
75447;BME280;64024;55.820;37.574;2022-10-16T14:16:50;100077.84;;;20.09;37.53
75447;BME280;64024;55.820;37.574;2022-10-16T14:19:25;100081.63;;;20.08;38.63
75447;BME280;64024;55.820;37.574;2022-10-16T14:21:52;100086.44;;;20.06;38.34
75447;BME280;64024;55.820;37.574;2022-10-16T14:24:34;100093.97;;;20.04;39.22
75447;BME280;64024;55.820;37.574;2022-10-16T14:27:01;100081.78;;;20.02;39.01
75447;BME280;64024;55.820;37.574;2022-10-16T14:29:29;100081.47;;;19.98;39.60
75447;BME280;64024;55.820;37.574;2022-10-16T14:32:02;100087.38;;;19.95;40.07